Time;durP1;ratioP1;P1;durP2;ratioP2;P2;SDS_P1;SDS_P2;PMS_P1;PMS_P2;Temp;Humidity;BMP_temperature;BMP_pressure;BME280_temperature;BME280_humidity;BME280_pressure;Samples;Min_cycle;Max_cycle;Signal;HPM_P1;HPM_P2
2021/12/25 00:02:07;;;;;;;5.05;3.28;;;;;;;8.27;70.21;99972.31;5027021;28;20057;-88
2021/12/25 00:04:33;;;;;;;5.85;3.42;;;;;;;8.28;69.54;99974.84;5021062;28;20038;-88
2021/12/25 00:06:59;;;;;;;5.93;3.70;;;;;;;8.39;69.24;99978.03;5023279;28;20042;-88
2021/12/25 00:09:25;;;;;;;8.23;3.53;;;;;;;8.34;69.83;99976.47;5003299;28;20034;-88
2021/12/25 00:11:50;;;;;;;7.47;3.80;;;;;;;8.31;69.93;99976.50;5025106;28;20029;-88
2021/12/25 00:14:16;;;;;;;6.03;3.70;;;;;;;8.26;69.75;99968.88;5020182;28;20084;-88
2021/12/25 00:16:42;;;;;;;10.80;3.53;;;;;;;8.37;68.64;99972.06;5022979;28;20113;-88
2021/12/25 00:19:08;;;;;;;8.57;3.88;;;;;;;8.29;69.75;99973.13;5042454;28;20044;-88
2021/12/25 00:21:33;;;;;;;12.90;4.40;;;;;;;8.23;69.40;99963.78;5025350;28;20147;-88
2021/12/25 00:23:59;;;;;;;7.70;3.90;;;;;;;8.25;69.63;99967.16;5024832;28;20040;-88
2021/12/25 00:26:39;;;;;;;7.68;4.75;;;;;;;8.15;70.11;99965.66;5021188;28;20064;-87
2021/12/25 00:29:30;;;;;;;9.57;5.28;;;;;;;8.37;68.85;99966.03;5026072;28;20038;-88
2021/12/25 00:32:10;;;;;;;9.07;3.88;;;;;;;8.22;69.79;99970.69;5018690;28;20042;-88
2021/12/25 00:34:37;;;;;;;7.22;4.07;;;;;;;8.07;70.25;99967.59;5007829;28;20406;-88
2021/12/25 00:37:04;;;;;;;6.82;3.75;;;;;;;8.24;69.28;99960.28;5022437;28;20045;-88
2021/12/25 00:39:30;;;;;;;9.82;4.38;;;;;;;8.23;69.60;99971.53;5022107;28;20037;-88
2021/12/25 00:42:01;;;;;;;6.88;3.85;;;;;;;8.18;69.82;99970.75;5007072;28;20098;-88
2021/12/25 00:44:27;;;;;;;10.45;4.18;;;;;;;8.10;69.57;99977.88;5009370;28;20045;-88
2021/12/25 00:46:52;;;;;;;6.55;3.70;;;;;;;8.11;69.73;99972.66;5021950;28;20040;-88
2021/12/25 00:49:18;;;;;;;8.63;3.88;;;;;;;8.13;69.17;99968.31;5024273;28;20120;-88
2021/12/25 00:51:44;;;;;;;13.40;4.20;;;;;;;8.03;70.08;99968.53;5021116;28;20088;-88
2021/12/25 00:54:10;;;;;;;8.35;4.93;;;;;;;8.12;70.08;99966.59;5008764;28;20048;-88
2021/12/25 00:56:36;;;;;;;9.13;5.10;;;;;;;8.16;69.98;99968.22;5023775;28;20029;-88
2021/12/25 00:59:02;;;;;;;6.93;3.92;;;;;;;8.32;69.59;99970.44;5024986;28;20046;-88
2021/12/25 01:01:28;;;;;;;7.05;3.72;;;;;;;8.18;70.48;99976.78;5012443;28;20045;-88
2021/12/25 01:03:53;;;;;;;7.72;4.15;;;;;;;8.11;70.30;99979.56;5025656;28;20034;-88
2021/12/25 01:06:19;;;;;;;5.63;4.15;;;;;;;8.14;70.78;99971.75;5021098;28;20030;-88
2021/12/25 01:08:44;;;;;;;7.97;4.85;;;;;;;8.24;69.79;99968.88;5008734;28;20545;-89
2021/12/25 01:11:10;;;;;;;9.80;3.92;;;;;;;8.10;70.48;99965.78;5022246;28;20045;-88
2021/12/25 01:13:42;;;;;;;7.28;3.55;;;;;;;8.09;70.46;99964.06;5024033;28;20053;-88
2021/12/25 01:48:37;;;;;;;8.17;4.80;;;;;;;7.88;70.60;99951.63;5018233;28;20053;-88
2021/12/25 01:51:02;;;;;;;9.27;3.72;;;;;;;7.90;71.09;99955.06;5020497;28;20029;-88
2021/12/25 01:53:28;;;;;;;10.90;4.35;;;;;;;7.88;71.08;99956.81;5023192;28;20037;-88
2021/12/25 01:55:54;;;;;;;7.40;4.90;;;;;;;8.01;70.47;99959.97;5022224;28;20148;-88
2021/12/25 01:58:20;;;;;;;12.55;5.10;;;;;;;8.17;70.76;99954.41;5005450;28;20041;-88
2021/12/25 02:00:50;;;;;;;11.63;5.05;;;;;;;8.08;70.63;99951.19;5020796;28;20052;-88
2021/12/25 02:03:18;;;;;;;8.95;4.68;;;;;;;8.06;70.97;99952.94;5018410;28;20049;-88
2021/12/25 02:05:43;;;;;;;10.02;5.35;;;;;;;8.14;70.67;99953.63;5026483;28;20497;-88
2021/12/25 02:08:09;;;;;;;9.55;4.50;;;;;;;8.22;70.61;99951.72;5021177;28;20073;-87
2021/12/25 02:10:35;;;;;;;7.70;4.35;;;;;;;8.20;70.71;99954.34;5023608;28;20144;-88
2021/12/25 02:13:03;;;;;;;10.30;4.93;;;;;;;8.24;70.96;99955.94;5006961;28;20096;-88
2021/12/25 02:15:31;;;;;;;10.85;5.35;;;;;;;8.37;70.23;99946.19;5008273;28;20042;-88
2021/12/25 02:18:14;;;;;;;9.75;5.43;;;;;;;8.10;70.91;99945.09;5023625;28;20021;-88
2021/12/25 02:23:23;;;;;;;8.50;4.53;;;;;;;8.08;70.89;99944.28;5023517;28;20061;-88
2021/12/25 02:25:56;;;;;;;6.75;4.45;;;;;;;8.09;71.44;99947.69;5023081;28;20037;-88
2021/12/25 02:28:24;;;;;;;9.65;4.47;;;;;;;8.00;71.58;99940.19;5014913;28;20042;-88
2021/12/25 02:30:52;;;;;;;7.28;4.80;;;;;;;8.00;72.02;99943.59;5021242;28;20038;-88
2021/12/25 02:33:18;;;;;;;11.25;5.20;;;;;;;8.13;71.94;99942.44;5014235;28;20108;-88
2021/12/25 02:35:45;;;;;;;9.52;5.40;;;;;;;8.18;71.21;99939.72;5020488;28;20479;-88
2021/12/25 02:38:11;;;;;;;8.02;4.88;;;;;;;8.27;71.33;99940.34;5020083;28;20088;-88
2021/12/25 02:40:37;;;;;;;8.70;4.90;;;;;;;8.18;71.33;99940.56;5021285;28;20034;-88
2021/12/25 02:43:03;;;;;;;8.68;4.70;;;;;;;8.02;71.92;99943.59;5013399;28;20427;-88
2021/12/25 02:45:29;;;;;;;11.57;5.47;;;;;;;7.99;72.16;99941.06;5017909;28;20461;-88
2021/12/25 02:47:56;;;;;;;11.30;5.72;;;;;;;7.95;71.86;99935.13;5025575;28;20462;-88
2021/12/25 02:50:28;;;;;;;11.25;4.95;;;;;;;7.97;72.28;99930.75;5023616;28;20041;-88
2021/12/25 02:52:56;;;;;;;9.68;5.47;;;;;;;8.04;71.73;99934.91;5023163;28;20063;-88
2021/12/25 02:55:22;;;;;;;12.60;5.97;;;;;;;8.10;71.73;99932.16;5025689;28;20946;-88
2021/12/25 02:57:51;;;;;;;10.40;5.35;;;;;;;8.07;71.75;99934.81;5024771;28;20044;-88
2021/12/25 03:00:25;;;;;;;10.02;5.47;;;;;;;8.04;72.43;99931.44;5043695;28;20454;-88
2021/12/25 03:02:51;;;;;;;15.07;5.95;;;;;;;8.10;71.90;99934.75;5025622;28;20144;-88
2021/12/25 03:05:17;;;;;;;11.55;5.93;;;;;;;8.05;72.16;99935.75;5024309;28;20132;-88
2021/12/25 03:07:44;;;;;;;11.07;5.45;;;;;;;7.88;72.68;99928.38;5025311;28;20154;-88
2021/12/25 03:10:11;;;;;;;11.30;5.63;;;;;;;7.96;73.04;99929.06;5025585;28;20091;-88
2021/12/25 03:12:49;;;;;;;11.20;6.60;;;;;;;8.16;72.51;99937.19;5023766;28;20561;-88
2021/12/25 03:15:20;;;;;;;11.30;6.32;;;;;;;8.08;72.52;99940.84;5026030;28;20056;-88
2021/12/25 03:17:46;;;;;;;12.13;6.03;;;;;;;8.11;72.93;99940.78;5010228;28;20037;-88
2021/12/25 03:20:12;;;;;;;13.48;6.60;;;;;;;8.03;72.74;99950.44;5009936;28;20045;-88
2021/12/25 03:22:39;;;;;;;10.90;5.70;;;;;;;7.96;72.42;99944.59;5027059;28;20132;-88
2021/12/25 03:25:10;;;;;;;10.02;5.97;;;;;;;7.86;73.22;99939.63;5022789;28;20053;-88
2021/12/25 03:27:41;;;;;;;12.15;5.97;;;;;;;7.95;73.63;99932.53;5020263;28;20096;-88
2021/12/25 03:30:08;;;;;;;10.85;5.55;;;;;;;8.21;72.61;99940.50;5025423;28;20033;-88
2021/12/25 03:32:34;;;;;;;11.18;5.22;;;;;;;8.02;73.10;99948.75;5024489;28;20072;-85
2021/12/25 03:35:00;;;;;;;10.63;5.63;;;;;;;8.03;73.21;99938.34;5021723;28;20767;-85
2021/12/25 03:37:27;;;;;;;13.13;5.53;;;;;;;8.12;72.76;99932.97;5034842;28;20460;-85
2021/12/25 03:39:53;;;;;;;11.05;6.18;;;;;;;8.16;72.89;99937.19;5023599;28;20039;-85
2021/12/25 03:42:18;;;;;;;8.80;4.97;;;;;;;8.19;72.76;99939.69;5029109;28;20029;-85
2021/12/25 03:44:45;;;;;;;10.48;5.70;;;;;;;8.05;73.43;99939.19;5023669;28;20079;-85
2021/12/25 03:47:31;;;;;;;8.77;5.32;;;;;;;7.93;73.90;99943.78;5020687;28;20034;-85
2021/12/25 03:58:15;;;;;;;10.63;5.50;;;;;;;7.89;73.80;99935.25;5020740;28;20119;-85
2021/12/25 04:00:43;;;;;;;10.73;5.88;;;;;;;8.07;73.20;99933.97;5017100;28;20557;-84
2021/12/25 04:03:17;;;;;;;12.35;5.78;;;;;;;7.97;73.37;99935.91;5033662;28;20029;-85
2021/12/25 04:05:45;;;;;;;12.38;6.07;;;;;;;8.02;73.65;99933.25;5025628;28;20492;-84
2021/12/25 04:08:13;;;;;;;9.30;6.15;;;;;;;7.98;73.42;99934.19;5022641;28;20498;-85
2021/12/25 04:10:42;;;;;;;10.30;6.00;;;;;;;7.92;73.70;99937.78;5019891;28;20033;-85
2021/12/25 04:13:14;;;;;;;13.85;5.93;;;;;;;7.93;73.43;99939.47;5021532;28;20037;-84
2021/12/25 04:15:40;;;;;;;9.00;5.22;;;;;;;7.87;74.14;99938.75;5017364;28;20061;-85
2021/12/25 04:18:06;;;;;;;11.60;5.43;;;;;;;7.91;73.76;99937.81;5020857;28;20029;-84
2021/12/25 04:20:32;;;;;;;8.90;4.97;;;;;;;7.91;73.51;99938.66;5024218;28;20045;-84
2021/12/25 04:23:13;;;;;;;15.00;5.55;;;;;;;7.81;74.26;99942.34;5023711;28;20075;-85
2021/12/25 04:25:41;;;;;;;9.70;4.60;;;;;;;7.97;73.28;99942.84;5024155;28;20655;-84
2021/12/25 04:28:31;;;;;;;8.25;4.53;;;;;;;8.02;73.18;99939.25;5021564;28;20049;-85
2021/12/25 04:42:41;;;;;;;13.43;5.70;;;;;;;7.96;73.39;99944.59;5018406;28;20050;-84
2021/12/25 04:50:09;;;;;;;6.07;3.25;;;;;;;7.96;73.86;99946.31;5021625;28;20164;-84
2021/12/25 05:05:52;;;;;;;4.18;2.45;;;;;;;7.76;73.90;99951.09;5023325;28;20475;-85
2021/12/25 05:08:18;;;;;;;4.15;2.30;;;;;;;7.79;73.84;99949.25;5021272;28;20052;-84
2021/12/25 05:10:44;;;;;;;4.28;2.70;;;;;;;7.74;73.68;99952.84;5023256;28;20582;-84
2021/12/25 05:13:09;;;;;;;4.97;2.55;;;;;;;7.76;73.50;99954.50;5023328;28;20461;-84
2021/12/25 05:15:35;;;;;;;5.97;2.60;;;;;;;7.88;72.83;99943.88;5021516;28;20116;-84
2021/12/25 05:18:01;;;;;;;4.18;2.63;;;;;;;7.74;72.36;99947.66;5022856;28;20030;-84
2021/12/25 05:20:26;;;;;;;5.60;2.80;;;;;;;7.73;73.08;99946.84;5023730;28;20052;-84
2021/12/25 05:22:52;;;;;;;4.45;2.67;;;;;;;7.83;72.44;99945.72;5020544;28;20037;-85
2021/12/25 05:25:17;;;;;;;4.40;2.42;;;;;;;7.79;72.22;99944.09;5028231;28;20533;-84
2021/12/25 05:27:45;;;;;;;5.68;2.47;;;;;;;7.86;72.03;99940.50;5023902;28;20136;-84
2021/12/25 05:30:11;;;;;;;4.97;2.60;;;;;;;7.92;71.91;99942.09;5026668;28;20043;-83
2021/12/25 05:32:36;;;;;;;6.63;2.60;;;;;;;7.77;72.14;99943.28;5015093;28;20033;-84
2021/12/25 05:35:02;;;;;;;5.28;2.50;;;;;;;7.70;73.28;99947.75;5018278;28;20048;-85
2021/12/25 05:37:29;;;;;;;6.47;2.80;;;;;;;7.70;72.17;99950.31;5019680;28;20040;-84
2021/12/25 05:39:54;;;;;;;5.43;2.55;;;;;;;7.68;72.58;99949.53;5020377;28;20042;-84
2021/12/25 05:42:22;;;;;;;4.70;2.50;;;;;;;7.65;72.44;99954.75;5021879;28;20075;-84
2021/12/25 05:44:48;;;;;;;4.88;2.38;;;;;;;7.67;72.63;99947.81;5018576;28;20042;-84
2021/12/25 05:47:14;;;;;;;3.95;2.17;;;;;;;7.61;72.49;99952.28;5020672;28;20438;-85
2021/12/25 05:49:40;;;;;;;4.53;2.30;;;;;;;7.69;72.06;99948.66;5022384;28;20050;-84
2021/12/25 05:52:06;;;;;;;5.63;3.15;;;;;;;7.70;71.76;99945.16;5021076;28;20042;-84
2021/12/25 05:54:32;;;;;;;4.18;2.30;;;;;;;7.61;72.17;99953.09;5018373;28;20168;-85
2021/12/25 05:56:57;;;;;;;5.60;2.15;;;;;;;7.45;73.04;99962.09;5026439;28;20486;-84
2021/12/25 05:59:23;;;;;;;2.88;2.00;;;;;;;7.58;71.93;99958.34;5023018;28;20079;-84
2021/12/25 06:01:48;;;;;;;4.43;2.25;;;;;;;7.52;72.22;99965.41;5020470;28;20049;-85
2021/12/25 06:04:14;;;;;;;4.75;2.55;;;;;;;7.60;72.16;99961.78;5022336;28;20034;-85
2021/12/25 06:06:40;;;;;;;3.60;2.13;;;;;;;7.41;71.95;99955.28;5020766;28;20116;-85
2021/12/25 06:09:09;;;;;;;3.92;2.50;;;;;;;7.50;72.13;99964.56;5020822;28;20026;-84
2021/12/25 06:11:36;;;;;;;2.72;1.70;;;;;;;7.64;71.29;99960.78;5024510;28;20049;-85
2021/12/25 06:14:21;;;;;;;3.38;2.08;;;;;;;7.70;71.59;99972.75;5022178;28;20084;-85
2021/12/25 06:16:49;;;;;;;3.83;2.55;;;;;;;7.58;71.68;99973.03;5021019;28;20034;-85
2021/12/25 06:19:15;;;;;;;3.13;1.95;;;;;;;7.56;71.68;99985.09;5021790;28;20437;-85
2021/12/25 06:21:42;;;;;;;5.38;2.38;;;;;;;7.57;71.93;99986.81;5021733;28;20137;-85
2021/12/25 06:24:08;;;;;;;5.65;2.15;;;;;;;7.44;72.53;99983.63;5023738;28;20025;-84
2021/12/25 06:26:35;;;;;;;5.20;2.42;;;;;;;7.41;72.43;99990.59;5024715;28;20037;-85
2021/12/25 06:29:02;;;;;;;2.72;1.90;;;;;;;7.46;72.31;99999.97;5024075;28;20414;-85
2021/12/25 06:31:28;;;;;;;3.65;2.40;;;;;;;7.64;70.88;99996.16;5021165;28;20107;-85
2021/12/25 06:33:54;;;;;;;3.35;1.92;;;;;;;7.48;71.25;99997.34;5030421;28;20041;-84
2021/12/25 06:36:20;;;;;;;4.18;2.20;;;;;;;7.43;72.11;100000.03;5023225;28;20123;-84
2021/12/25 06:38:46;;;;;;;4.05;2.03;;;;;;;7.55;71.16;100002.34;5027497;28;20172;-85
2021/12/25 06:41:12;;;;;;;3.72;2.22;;;;;;;7.45;71.81;100005.16;5019931;28;20095;-85
2021/12/25 06:43:39;;;;;;;3.55;1.98;;;;;;;7.41;71.91;100012.13;5023468;28;20412;-85
2021/12/25 06:46:04;;;;;;;4.45;2.08;;;;;;;7.36;72.67;100007.94;5020800;28;20402;-85
2021/12/25 06:48:30;;;;;;;3.92;2.40;;;;;;;7.40;71.83;100007.00;5027238;28;20033;-85
2021/12/25 06:50:55;;;;;;;3.65;2.28;;;;;;;7.57;71.04;100013.53;5023787;28;20112;-85
2021/12/25 06:53:21;;;;;;;5.03;2.50;;;;;;;7.41;71.58;100019.00;5028265;28;20045;-84
2021/12/25 06:55:47;;;;;;;3.20;1.73;;;;;;;7.31;71.68;100014.94;5029406;28;20049;-85
2021/12/25 06:58:12;;;;;;;3.95;2.10;;;;;;;7.68;70.66;100014.13;5023245;28;20053;-84
2021/12/25 07:00:38;;;;;;;3.55;2.10;;;;;;;7.46;70.98;100015.50;5026513;28;20038;-85
2021/12/25 07:03:03;;;;;;;3.63;2.15;;;;;;;7.31;72.50;100027.84;5022936;28;20417;-85
2021/12/25 07:05:29;;;;;;;5.13;2.45;;;;;;;7.24;71.51;100027.09;5027367;28;20041;-85
2021/12/25 07:07:55;;;;;;;3.40;1.70;;;;;;;7.40;71.71;100027.66;5022633;28;20041;-85
2021/12/25 07:10:21;;;;;;;5.75;2.53;;;;;;;7.33;71.75;100028.66;5027788;28;20048;-84
2021/12/25 07:12:49;;;;;;;6.00;3.00;;;;;;;7.32;71.61;100032.13;5025194;28;20048;-85
2021/12/25 07:15:15;;;;;;;4.07;2.30;;;;;;;7.41;70.49;100037.97;5026700;28;20044;-84
2021/12/25 07:17:40;;;;;;;4.88;2.70;;;;;;;7.33;71.85;100036.41;5027283;28;20025;-85
2021/12/25 07:20:07;;;;;;;4.13;2.45;;;;;;;7.29;70.96;100045.09;5028705;28;20398;-85
2021/12/25 07:22:32;;;;;;;5.53;2.70;;;;;;;7.33;69.90;100050.19;5006421;28;20045;-85
2021/12/25 07:24:58;;;;;;;4.28;2.30;;;;;;;7.21;70.76;100054.72;5020221;28;20037;-85
2021/12/25 07:27:24;;;;;;;4.93;2.33;;;;;;;7.16;72.50;100053.97;5022315;28;20281;-85
2021/12/25 07:29:49;;;;;;;4.00;2.75;;;;;;;7.24;71.63;100052.94;5029777;28;20029;-85
2021/12/25 07:32:15;;;;;;;3.13;1.80;;;;;;;7.25;71.29;100061.56;5023787;28;20112;-85
2021/12/25 07:34:40;;;;;;;3.55;2.22;;;;;;;7.24;70.54;100062.41;5027277;28;20087;-85
2021/12/25 07:37:06;;;;;;;2.75;1.63;;;;;;;7.38;70.08;100066.44;5050841;28;20029;-85
2021/12/25 07:39:32;;;;;;;1.95;1.52;;;;;;;7.05;70.92;100067.06;5022765;28;20120;-85
2021/12/25 07:41:58;;;;;;;2.88;1.48;;;;;;;7.38;69.23;100070.75;5026206;28;20954;-84
2021/12/25 07:44:24;;;;;;;1.90;1.15;;;;;;;7.42;69.25;100069.81;5024822;28;20600;-85
2021/12/25 07:46:49;;;;;;;1.67;1.20;;;;;;;7.28;69.52;100074.41;5026504;28;20065;-85
2021/12/25 07:49:19;;;;;;;1.83;0.80;;;;;;;7.18;69.61;100078.88;5027836;28;20038;-85
2021/12/25 07:51:45;;;;;;;1.48;1.10;;;;;;;7.37;69.59;100082.00;5025269;28;20038;-85
2021/12/25 07:54:10;;;;;;;1.48;0.80;;;;;;;7.31;68.31;100072.63;5027298;28;20406;-85
2021/12/25 07:56:36;;;;;;;1.50;0.90;;;;;;;7.40;67.73;100080.19;5023571;28;20048;-85
2021/12/25 07:59:02;;;;;;;1.15;1.00;;;;;;;7.44;67.47;100089.59;5026305;28;20056;-85
2021/12/25 08:01:29;;;;;;;2.20;0.70;;;;;;;7.32;68.53;100087.22;5021038;28;20038;-85
2021/12/25 08:03:55;;;;;;;1.50;0.80;;;;;;;7.23;68.57;100094.31;5024588;28;20141;-85
2021/12/25 08:06:21;;;;;;;1.08;0.80;;;;;;;7.28;68.16;100101.09;5023924;28;20403;-85
2021/12/25 08:08:49;;;;;;;1.10;0.52;;;;;;;7.47;66.69;100101.59;5027276;28;20037;-85
2021/12/25 08:11:14;;;;;;;2.78;1.00;;;;;;;7.64;66.65;100102.13;5026879;28;20052;-85
2021/12/25 08:13:40;;;;;;;2.95;1.15;;;;;;;7.53;66.85;100110.09;5022788;28;20041;-85
2021/12/25 08:16:05;;;;;;;2.03;0.82;;;;;;;7.48;66.84;100108.47;5024086;28;20560;-85
2021/12/25 08:18:31;;;;;;;1.65;1.20;;;;;;;7.51;66.11;100111.00;5025979;28;20061;-85
2021/12/25 08:20:57;;;;;;;0.90;0.70;;;;;;;7.37;66.57;100116.44;5027671;28;20112;-85
2021/12/25 08:23:23;;;;;;;1.90;0.88;;;;;;;7.34;67.15;100111.31;5025264;28;20406;-85
2021/12/25 08:25:48;;;;;;;0.60;0.57;;;;;;;7.55;66.48;100116.06;5026067;28;20026;-85
2021/12/25 08:28:14;;;;;;;1.17;0.80;;;;;;;7.35;66.93;100117.31;5021964;28;20044;-85
2021/12/25 08:30:39;;;;;;;1.17;0.70;;;;;;;7.18;67.47;100120.22;5026333;28;20518;-85
2021/12/25 08:33:05;;;;;;;0.93;0.75;;;;;;;7.04;68.36;100125.63;5030560;28;20087;-85
2021/12/25 08:35:31;;;;;;;1.17;0.65;;;;;;;6.93;68.52;100124.94;5026950;28;20629;-86
2021/12/25 08:37:56;;;;;;;1.42;0.82;;;;;;;7.12;67.64;100135.81;5025958;28;20517;-85
2021/12/25 08:40:24;;;;;;;1.77;0.82;;;;;;;7.05;67.91;100131.63;5023884;28;20041;-85
2021/12/25 08:42:54;;;;;;;1.08;0.90;;;;;;;7.15;66.27;100135.75;5024134;28;20104;-85
2021/12/25 08:45:44;;;;;;;2.28;0.70;;;;;;;7.02;66.51;100137.69;5025286;28;20095;-85
2021/12/25 08:48:15;;;;;;;1.58;0.70;;;;;;;7.16;66.14;100146.94;5022154;28;20051;-84
2021/12/25 08:50:43;;;;;;;1.45;1.00;;;;;;;7.22;66.20;100146.84;5021529;28;20712;-86
2021/12/25 08:53:08;;;;;;;0.75;0.60;;;;;;;7.01;65.89;100146.34;5026771;28;20038;-86
2021/12/25 08:55:34;;;;;;;1.10;0.80;;;;;;;7.13;66.10;100151.31;5024756;28;20037;-85
2021/12/25 08:57:59;;;;;;;3.50;1.00;;;;;;;6.84;66.40;100155.22;5023788;28;20041;-85
2021/12/25 09:00:25;;;;;;;0.68;0.55;;;;;;;6.90;66.52;100161.13;5026753;28;20143;-85
2021/12/25 09:02:52;;;;;;;1.20;0.80;;;;;;;7.04;66.87;100161.78;5022488;28;20044;-86
2021/12/25 09:05:17;;;;;;;1.17;0.63;;;;;;;7.01;66.61;100159.25;5023555;28;20033;-85
2021/12/25 09:07:43;;;;;;;1.52;0.90;;;;;;;6.84;65.99;100158.63;5023030;28;20693;-85
2021/12/25 09:10:08;;;;;;;1.52;0.90;;;;;;;6.98;65.92;100166.19;5026699;28;20808;-85
2021/12/25 09:12:40;;;;;;;0.57;0.57;;;;;;;7.05;66.43;100172.94;5024809;28;20038;-84
2021/12/25 09:15:05;;;;;;;0.80;0.80;;;;;;;7.06;65.79;100180.66;5021325;28;20033;-84
2021/12/25 09:17:31;;;;;;;1.20;0.80;;;;;;;6.86;66.95;100180.13;5023897;28;20553;-85
2021/12/25 09:19:57;;;;;;;3.05;0.80;;;;;;;6.95;65.36;100180.00;5023578;28;20041;-85
2021/12/25 09:22:22;;;;;;;1.70;0.95;;;;;;;6.88;66.88;100188.69;5025991;28;20045;-85
2021/12/25 09:24:47;;;;;;;1.77;0.90;;;;;;;6.83;66.14;100190.50;5024399;28;20444;-85
2021/12/25 09:27:13;;;;;;;2.28;0.98;;;;;;;6.57;67.39;100192.63;5019178;28;20028;-85
2021/12/25 09:29:39;;;;;;;1.70;0.90;;;;;;;6.96;65.93;100188.59;5026410;28;20482;-85
2021/12/25 09:32:07;;;;;;;1.23;0.93;;;;;;;6.89;65.96;100189.56;5025467;28;20034;-85
2021/12/25 09:34:33;;;;;;;1.50;0.93;;;;;;;6.91;66.00;100200.72;5023110;28;20429;-85
2021/12/25 09:36:58;;;;;;;1.52;0.80;;;;;;;6.90;64.87;100194.69;5024397;28;20029;-85
2021/12/25 09:39:24;;;;;;;2.65;0.82;;;;;;;7.10;64.83;100189.22;5025116;28;20072;-85
2021/12/25 09:41:49;;;;;;;1.25;0.55;;;;;;;7.08;64.20;100190.97;5025544;28;20483;-88
2021/12/25 09:44:15;;;;;;;1.27;0.60;;;;;;;6.88;64.05;100195.59;5023851;28;20443;-89
2021/12/25 09:46:40;;;;;;;0.73;0.70;;;;;;;6.69;64.16;100200.19;5022241;28;20429;-88
2021/12/25 09:49:06;;;;;;;0.65;0.60;;;;;;;6.76;63.53;100198.34;5026313;28;20041;-88
2021/12/25 09:51:32;;;;;;;0.85;0.68;;;;;;;6.99;64.16;100198.84;5022964;28;20453;-88
2021/12/25 09:54:06;;;;;;;0.57;0.50;;;;;;;6.99;63.67;100202.28;5028554;28;20029;-88
2021/12/25 09:56:33;;;;;;;0.90;0.57;;;;;;;6.65;64.45;100216.59;5022890;28;20069;-88
2021/12/25 09:58:58;;;;;;;0.60;0.43;;;;;;;6.62;64.03;100216.63;5023105;28;20029;-88
2021/12/25 10:01:45;;;;;;;0.73;0.57;;;;;;;6.73;64.55;100225.06;5027306;28;20095;-88
2021/12/25 10:04:28;;;;;;;0.80;0.70;;;;;;;6.66;64.00;100222.59;5024201;28;20041;-88
2021/12/25 10:06:57;;;;;;;0.70;0.50;;;;;;;6.76;63.96;100224.16;5027572;28;20052;-88
2021/12/25 10:09:25;;;;;;;0.65;0.40;;;;;;;6.62;64.34;100221.78;5028230;28;20040;-88
2021/12/25 10:12:16;;;;;;;0.63;0.60;;;;;;;6.87;64.02;100220.56;5026388;28;20040;-88
2021/12/25 10:14:50;;;;;;;1.10;0.55;;;;;;;6.74;65.26;100234.53;5020065;28;20123;-87
2021/12/25 10:17:23;;;;;;;2.28;1.00;;;;;;;6.91;64.12;100223.94;5029703;28;20021;-87
2021/12/25 10:20:08;;;;;;;1.38;0.80;;;;;;;6.69;65.10;100230.31;5022190;28;20100;-87
2021/12/25 10:22:58;;;;;;;0.80;0.65;;;;;;;6.58;65.22;100236.44;5023704;28;20034;-87
2021/12/25 10:25:32;;;;;;;0.80;0.57;;;;;;;6.67;64.31;100227.72;5026557;28;20045;-87
2021/12/25 10:28:01;;;;;;;0.88;0.60;;;;;;;6.81;64.10;100235.31;5025150;28;20038;-87
2021/12/25 10:30:27;;;;;;;0.73;0.60;;;;;;;6.67;64.48;100235.47;5022430;28;20176;-88
2021/12/25 10:32:53;;;;;;;0.98;0.50;;;;;;;6.75;63.00;100233.63;5024360;28;20030;-87
2021/12/25 10:35:23;;;;;;;1.08;0.60;;;;;;;6.70;64.25;100229.41;5026443;28;20204;-87
2021/12/25 10:37:52;;;;;;;1.00;0.68;;;;;;;6.73;64.05;100230.22;5031844;28;20617;-87
2021/12/25 10:40:26;;;;;;;0.50;0.47;;;;;;;6.63;64.19;100232.97;5025029;28;20038;-88
2021/12/25 10:42:55;;;;;;;0.88;0.60;;;;;;;6.70;62.93;100225.09;5025150;28;20538;-87
2021/12/25 10:45:22;;;;;;;0.80;0.40;;;;;;;6.82;62.96;100232.69;5030210;28;20045;-88
2021/12/25 10:48:16;;;;;;;0.50;0.50;;;;;;;6.91;62.58;100213.63;5027694;28;20039;-87
2021/12/25 10:50:48;;;;;;;1.05;0.50;;;;;;;6.77;62.46;100216.41;5021987;28;20086;-88
2021/12/25 10:53:31;;;;;;;0.70;0.57;;;;;;;6.93;61.36;100211.88;5023969;28;20033;-87
2021/12/25 10:56:15;;;;;;;1.05;0.70;;;;;;;6.63;62.94;100217.47;5027673;28;20029;-87
2021/12/25 10:58:43;;;;;;;0.82;0.55;;;;;;;6.64;62.65;100220.03;5025470;28;20048;-88
2021/12/25 11:01:11;;;;;;;0.68;0.68;;;;;;;6.87;61.82;100215.38;5027764;28;20120;-88
2021/12/25 11:03:39;;;;;;;1.80;0.63;;;;;;;6.65;62.81;100220.88;5025961;28;20569;-87
2021/12/25 11:06:13;;;;;;;0.52;0.52;;;;;;;6.86;63.47;100212.84;5026240;28;20052;-86
2021/12/25 11:08:40;;;;;;;1.13;0.77;;;;;;;6.93;61.66;100211.88;5026256;28;20032;-88
2021/12/25 11:11:07;;;;;;;0.73;0.63;;;;;;;6.90;61.21;100219.69;5022949;28;20129;-88
2021/12/25 11:13:51;;;;;;;1.05;0.70;;;;;;;6.79;62.25;100214.66;5023671;28;20041;-88
2021/12/25 11:16:30;;;;;;;0.70;0.68;;;;;;;6.94;61.00;100201.53;5024876;28;20502;-87
2021/12/25 11:21:51;;;;;;;1.48;0.82;;;;;;;7.07;61.21;100210.78;5028913;28;20100;-87
2021/12/25 11:24:20;;;;;;;0.70;0.52;;;;;;;6.74;60.79;100213.00;5024326;28;20033;-87
2021/12/25 11:27:04;;;;;;;1.10;0.70;;;;;;;6.73;61.37;100226.78;5027361;28;20029;-87
2021/12/25 11:29:31;;;;;;;0.77;0.50;;;;;;;6.82;60.93;100231.81;5023388;28;20038;-87
2021/12/25 11:31:58;;;;;;;0.85;0.80;;;;;;;6.93;60.95;100227.38;5024024;28;20030;-87
2021/12/25 11:34:25;;;;;;;1.95;1.02;;;;;;;7.03;59.88;100231.50;5026491;28;20103;-87
2021/12/25 11:36:53;;;;;;;1.08;0.82;;;;;;;6.92;59.91;100238.56;5023890;28;20034;-87
2021/12/25 11:39:21;;;;;;;1.33;0.80;;;;;;;6.88;60.30;100244.63;5028699;28;20029;-87
2021/12/25 11:41:58;;;;;;;1.00;0.73;;;;;;;6.56;60.61;100240.78;5024858;28;20120;-87
2021/12/25 11:44:42;;;;;;;0.95;0.77;;;;;;;6.88;60.77;100248.09;5024345;28;20453;-87
2021/12/25 11:47:27;;;;;;;1.25;0.70;;;;;;;7.01;60.66;100244.47;5028351;28;20403;-87
2021/12/25 11:49:54;;;;;;;1.30;0.80;;;;;;;6.60;61.21;100246.78;5027320;28;20042;-87
2021/12/25 11:52:23;;;;;;;0.93;0.60;;;;;;;6.80;59.04;100238.75;5026293;28;20398;-87
2021/12/25 11:57:49;;;;;;;1.33;0.80;;;;;;;6.65;59.64;100238.94;5024810;28;20119;-87
2021/12/25 12:00:36;;;;;;;1.30;1.02;;;;;;;6.67;59.09;100239.78;5021891;28;20025;-87
2021/12/25 12:03:04;;;;;;;2.90;0.90;;;;;;;6.79;59.28;100240.47;5025643;28;20029;-88
2021/12/25 12:05:31;;;;;;;1.25;0.70;;;;;;;6.74;59.47;100244.84;5028056;28;20587;-88
2021/12/25 12:07:58;;;;;;;1.73;0.90;;;;;;;6.72;58.68;100244.03;5026824;28;20041;-88
2021/12/25 12:10:56;;;;;;;0.82;0.75;;;;;;;6.79;58.82;100234.44;5029269;28;20041;-88
2021/12/25 12:13:24;;;;;;;1.35;0.80;;;;;;;6.55;59.19;100238.22;5024410;28;20095;-87
2021/12/25 12:15:52;;;;;;;1.30;0.82;;;;;;;6.65;60.15;100241.53;5024295;28;20090;-88
2021/12/25 12:18:23;;;;;;;1.50;0.90;;;;;;;6.43;58.78;100241.78;5025812;28;20018;-87
2021/12/25 12:20:50;;;;;;;0.95;0.70;;;;;;;6.79;59.86;100249.94;5024299;28;20053;-88
2021/12/25 12:26:19;;;;;;;0.80;0.68;;;;;;;6.71;59.10;100241.44;5054220;28;20414;-88
2021/12/25 12:28:53;;;;;;;0.88;0.60;;;;;;;6.84;57.89;100237.84;5029159;28;20038;-88
2021/12/25 12:31:37;;;;;;;0.73;0.60;;;;;;;6.92;58.34;100233.41;5024207;28;20088;-88
2021/12/25 12:34:31;;;;;;;0.88;0.57;;;;;;;6.63;58.41;100228.66;5026792;28;20163;-88
2021/12/25 12:37:14;;;;;;;0.75;0.60;;;;;;;6.70;57.52;100232.84;5027093;28;20030;-87
2021/12/25 12:40:05;;;;;;;0.68;0.45;;;;;;;6.66;57.91;100240.66;5026201;28;20037;-87
2021/12/25 12:42:43;;;;;;;0.57;0.45;;;;;;;6.43;57.71;100243.50;5027253;28;20511;-88
2021/12/25 12:45:20;;;;;;;0.65;0.52;;;;;;;6.41;58.18;100240.09;5024977;28;20021;-87
2021/12/25 12:48:08;;;;;;;1.45;0.70;;;;;;;6.54;58.05;100246.84;5023981;28;20040;-88
2021/12/25 12:50:35;;;;;;;0.52;0.50;;;;;;;6.63;58.25;100245.88;5018783;28;20398;-87
2021/12/25 12:53:03;;;;;;;0.52;0.40;;;;;;;6.47;57.35;100251.22;5027547;28;20099;-87
2021/12/25 12:55:32;;;;;;;0.70;0.65;;;;;;;6.71;56.56;100251.78;5029135;28;20048;-87
2021/12/25 12:58:09;;;;;;;0.73;0.60;;;;;;;6.65;56.90;100255.28;5028356;28;20065;-87
2021/12/25 13:00:35;;;;;;;1.05;0.50;;;;;;;6.47;57.11;100258.97;5028083;28;20069;-87
2021/12/25 13:03:00;;;;;;;1.00;0.73;;;;;;;6.60;56.48;100256.22;5024499;28;20056;-87
2021/12/25 13:05:33;;;;;;;0.85;0.70;;;;;;;6.48;57.41;100259.81;5026699;28;20068;-87
2021/12/25 13:08:01;;;;;;;0.80;0.50;;;;;;;6.46;57.59;100258.94;5024761;28;20442;-88